createdAt,value
2022-12-26T00:00:16.688Z,24.30
2022-12-26T00:00:49.181Z,24.40
2022-12-26T00:01:21.719Z,23.00
2022-12-26T00:01:54.234Z,25.40
2022-12-26T00:02:26.705Z,26.80
2022-12-26T00:02:59.323Z,24.10
2022-12-26T00:03:31.715Z,23.00
2022-12-26T00:04:04.137Z,21.40
2022-12-26T00:04:50.728Z,24.40
2022-12-26T00:05:08.941Z,23.00
2022-12-26T00:05:41.385Z,20.50
2022-12-26T00:06:13.834Z,22.30
2022-12-26T00:06:46.326Z,23.90
2022-12-26T00:07:18.858Z,22.00
2022-12-26T00:07:51.358Z,20.90
2022-12-26T00:08:23.855Z,29.20
2022-12-26T00:08:56.360Z,25.80
2022-12-26T00:09:28.831Z,23.80
2022-12-26T00:10:01.302Z,23.30
2022-12-26T00:10:33.796Z,24.40
2022-12-26T00:11:06.297Z,26.00
2022-12-26T00:11:38.815Z,24.90
2022-12-26T00:12:11.311Z,24.20
2022-12-26T00:12:43.853Z,24.00
2022-12-26T00:13:38.830Z,26.20
2022-12-26T00:13:48.809Z,23.90
2022-12-26T00:14:21.254Z,24.20
2022-12-26T00:14:53.661Z,22.30
2022-12-26T00:15:26.174Z,24.90
2022-12-26T00:15:58.626Z,27.50
2022-12-26T00:16:31.134Z,26.00
2022-12-26T00:17:03.618Z,25.00
2022-12-26T00:17:36.094Z,25.60
2022-12-26T00:18:08.549Z,31.50
2022-12-26T00:18:41.049Z,30.50
2022-12-26T00:19:13.504Z,25.50
2022-12-26T00:19:45.918Z,27.70
2022-12-26T00:20:18.481Z,28.90
2022-12-26T00:20:50.978Z,26.80
2022-12-26T00:21:23.482Z,32.30
2022-12-26T00:21:55.971Z,31.10
2022-12-26T00:22:28.477Z,29.00
2022-12-26T00:23:00.920Z,27.30
2022-12-26T00:23:33.336Z,30.30
2022-12-26T00:24:05.797Z,30.20
2022-12-26T00:24:38.220Z,27.10
2022-12-26T00:25:10.668Z,27.50
2022-12-26T00:25:43.111Z,32.00
2022-12-26T00:26:15.558Z,30.60
2022-12-26T00:26:47.985Z,26.90
2022-12-26T00:27:20.438Z,27.90
2022-12-26T00:27:52.855Z,28.70
2022-12-26T00:28:25.358Z,32.60
2022-12-26T00:28:57.866Z,33.80
2022-12-26T00:29:30.298Z,31.80
2022-12-26T00:30:02.738Z,34.10
2022-12-26T00:30:35.176Z,30.20
2022-12-26T00:31:07.784Z,28.70
2022-12-26T00:31:40.352Z,35.50
2022-12-26T00:32:12.762Z,37.10
2022-12-26T00:32:45.167Z,33.00
2022-12-26T00:33:17.595Z,33.10
2022-12-26T00:33:50.052Z,33.20
2022-12-26T00:34:22.527Z,30.90
2022-12-26T00:34:55.050Z,32.00
2022-12-26T00:35:27.492Z,30.40
2022-12-26T00:36:00.090Z,29.60
2022-12-26T00:36:32.574Z,31.30
2022-12-26T00:37:05.093Z,30.30
2022-12-26T00:37:37.564Z,27.50
2022-12-26T00:38:10.194Z,27.00
2022-12-26T00:38:42.660Z,29.60
2022-12-26T00:39:15.150Z,27.30
2022-12-26T00:39:47.634Z,28.30
2022-12-26T00:40:20.123Z,29.60
2022-12-26T00:40:52.614Z,27.90
2022-12-26T00:41:25.041Z,27.80
2022-12-26T00:41:57.457Z,30.30
2022-12-26T00:42:29.903Z,32.30
2022-12-26T00:43:02.347Z,27.80
2022-12-26T00:43:34.792Z,27.70
2022-12-26T00:44:07.287Z,27.10
2022-12-26T00:44:39.705Z,26.70
2022-12-26T00:45:12.264Z,28.30
2022-12-26T00:45:44.750Z,27.70
2022-12-26T00:46:17.280Z,28.90
2022-12-26T00:46:49.794Z,29.30
2022-12-26T00:47:22.212Z,28.80
2022-12-26T00:47:54.695Z,29.70
2022-12-26T00:48:27.195Z,27.00
2022-12-26T00:48:59.660Z,29.30
2022-12-26T00:50:11.445Z,29.80
2022-12-26T00:50:11.633Z,31.40
2022-12-26T00:50:37.145Z,31.40
2022-12-26T00:51:09.583Z,32.30
2022-12-26T00:51:42.095Z,31.30
2022-12-26T00:52:14.584Z,30.00
2022-12-26T00:52:47.039Z,29.30
2022-12-26T00:53:19.521Z,27.50
2022-12-26T00:53:52.031Z,27.60
2022-12-26T00:54:24.474Z,30.50
2022-12-26T00:54:56.942Z,31.70
2022-12-26T00:55:29.384Z,29.90
2022-12-26T00:56:01.872Z,29.40
2022-12-26T00:56:34.347Z,31.10
2022-12-26T00:57:06.784Z,27.40
2022-12-26T00:57:39.258Z,27.10
2022-12-26T00:58:11.708Z,27.20
2022-12-26T00:58:44.185Z,33.00
2022-12-26T00:59:16.572Z,35.10
2022-12-26T00:59:49.026Z,29.00
2022-12-26T01:00:21.443Z,30.90
2022-12-26T01:00:54.006Z,27.00
2022-12-26T01:01:26.648Z,28.80
2022-12-26T01:01:59.166Z,33.90
2022-12-26T01:02:31.675Z,34.50
2022-12-26T01:03:04.050Z,37.60
2022-12-26T01:03:36.365Z,34.60
2022-12-26T01:04:08.788Z,30.30
2022-12-26T01:04:41.374Z,32.70
2022-12-26T01:05:13.875Z,33.00
2022-12-26T01:05:46.415Z,29.20
2022-12-26T01:06:18.905Z,33.20
2022-12-26T01:06:51.319Z,35.30
2022-12-26T01:07:23.745Z,34.40
2022-12-26T01:08:22.986Z,33.80
2022-12-26T01:08:28.643Z,33.40
2022-12-26T01:09:01.147Z,36.60
2022-12-26T01:09:33.626Z,36.90
2022-12-26T01:10:06.120Z,33.90
2022-12-26T01:10:38.569Z,37.80
2022-12-26T01:11:10.994Z,39.60
2022-12-26T01:11:43.551Z,37.40
2022-12-26T01:12:16.042Z,34.00
2022-12-26T01:12:48.467Z,35.10
2022-12-26T01:13:20.896Z,34.20
2022-12-26T01:13:53.331Z,37.80
2022-12-26T01:14:25.767Z,38.10
2022-12-26T01:14:58.252Z,35.30
2022-12-26T01:15:30.753Z,35.60
2022-12-26T01:16:03.299Z,34.20
2022-12-26T01:16:35.821Z,34.90
2022-12-26T01:17:08.256Z,36.00
2022-12-26T01:17:40.753Z,34.60
2022-12-26T01:18:13.233Z,32.10
2022-12-26T01:18:45.725Z,34.30
2022-12-26T01:19:18.235Z,39.30
2022-12-26T01:19:50.776Z,36.10
2022-12-26T01:20:23.260Z,31.20
2022-12-26T01:20:55.761Z,30.70
2022-12-26T01:21:28.225Z,34.10
2022-12-26T01:22:00.662Z,34.70
2022-12-26T01:22:33.082Z,34.40
2022-12-26T01:23:05.524Z,36.80
2022-12-26T01:23:38.077Z,34.20
2022-12-26T01:24:10.553Z,26.70
2022-12-26T01:24:43.024Z,34.40
2022-12-26T01:25:15.505Z,37.50
2022-12-26T01:26:16.574Z,35.50
2022-12-26T01:26:20.459Z,35.90
2022-12-26T01:26:52.866Z,33.50
2022-12-26T01:27:25.335Z,32.50
2022-12-26T01:27:57.835Z,29.30
2022-12-26T01:28:30.311Z,30.10
2022-12-26T01:29:02.779Z,31.20
2022-12-26T01:29:35.232Z,33.70
2022-12-26T01:30:07.770Z,35.30
2022-12-26T01:30:40.252Z,34.80
2022-12-26T01:31:12.821Z,33.70
2022-12-26T01:31:45.240Z,34.70
2022-12-26T01:32:17.658Z,37.00
2022-12-26T01:32:50.112Z,37.20
2022-12-26T01:33:22.544Z,36.10
2022-12-26T01:33:55.015Z,33.90
2022-12-26T01:34:27.512Z,34.80
2022-12-26T01:34:59.930Z,30.00
2022-12-26T01:35:32.376Z,30.30
2022-12-26T01:36:04.807Z,28.90
2022-12-26T01:36:37.298Z,31.40
2022-12-26T01:37:09.789Z,35.40
2022-12-26T01:37:42.228Z,37.60
2022-12-26T01:38:14.669Z,36.20
2022-12-26T01:38:47.156Z,35.70
2022-12-26T01:39:19.607Z,35.80
2022-12-26T01:39:52.050Z,30.50
2022-12-26T01:40:24.468Z,38.10
2022-12-26T01:40:56.948Z,41.90
2022-12-26T01:41:29.422Z,37.10
2022-12-26T01:42:01.863Z,35.00
2022-12-26T01:42:34.414Z,33.00
2022-12-26T01:43:06.827Z,35.00
2022-12-26T01:43:39.234Z,36.80
2022-12-26T01:44:11.727Z,32.10
2022-12-26T01:44:44.183Z,32.60
2022-12-26T01:45:16.602Z,36.00
2022-12-26T01:45:49.239Z,35.60
2022-12-26T01:46:21.745Z,37.50
2022-12-26T01:46:54.219Z,37.20
2022-12-26T01:47:26.700Z,43.30
2022-12-26T01:47:59.152Z,43.90
2022-12-26T01:48:31.575Z,34.10
2022-12-26T01:49:04.007Z,30.00
2022-12-26T01:49:36.440Z,33.10
2022-12-26T01:50:08.879Z,36.00
2022-12-26T01:50:41.348Z,34.40
2022-12-26T01:51:13.828Z,33.60
2022-12-26T01:51:46.369Z,36.20
2022-12-26T01:52:18.832Z,35.90
2022-12-26T01:52:51.409Z,34.80
2022-12-26T01:53:23.887Z,35.30
2022-12-26T01:53:56.335Z,33.30
2022-12-26T01:54:39.491Z,32.70
2022-12-26T01:55:01.246Z,37.40
2022-12-26T01:55:33.753Z,33.30
2022-12-26T01:56:06.193Z,32.90
2022-12-26T01:56:38.638Z,32.40
2022-12-26T01:57:11.078Z,32.80
2022-12-26T01:57:43.513Z,33.90
2022-12-26T01:58:16.011Z,35.60
2022-12-26T01:58:48.557Z,37.30
2022-12-26T01:59:21.037Z,37.60
2022-12-26T01:59:53.562Z,39.60
2022-12-26T02:00:26.008Z,42.70
2022-12-26T02:00:58.557Z,38.30
2022-12-26T02:01:31.101Z,37.60
2022-12-26T02:02:03.566Z,36.50
2022-12-26T02:02:35.907Z,33.20
2022-12-26T02:03:08.409Z,34.00
2022-12-26T02:03:40.803Z,32.60
2022-12-26T02:04:13.243Z,33.00
2022-12-26T02:04:45.688Z,35.70
2022-12-26T02:05:18.133Z,35.60
2022-12-26T02:05:50.567Z,34.60
2022-12-26T02:06:23.016Z,35.90
2022-12-26T02:06:55.452Z,37.50
2022-12-26T02:07:27.972Z,36.80
2022-12-26T02:08:00.483Z,34.50
2022-12-26T02:08:32.993Z,30.70
2022-12-26T02:09:05.495Z,32.70
2022-12-26T02:09:38.009Z,39.40
2022-12-26T02:10:10.493Z,37.30
2022-12-26T02:10:43.026Z,38.60
2022-12-26T02:11:15.451Z,40.40
2022-12-26T02:11:47.930Z,35.60
2022-12-26T02:12:35.457Z,34.30
2022-12-26T02:12:52.853Z,34.80
2022-12-26T02:13:25.320Z,34.10
2022-12-26T02:13:57.736Z,41.40
2022-12-26T02:14:30.186Z,42.00
2022-12-26T02:15:02.601Z,37.40
2022-12-26T02:15:35.099Z,34.00
2022-12-26T02:16:07.549Z,36.00
2022-12-26T02:16:40.036Z,37.40
2022-12-26T02:17:12.477Z,41.50
2022-12-26T02:17:45.016Z,39.30
2022-12-26T02:18:17.446Z,36.70
2022-12-26T02:18:49.886Z,33.00
2022-12-26T02:19:22.398Z,41.50
2022-12-26T02:19:54.922Z,38.20
2022-12-26T02:20:27.460Z,35.90
2022-12-26T02:20:59.955Z,37.00
2022-12-26T02:21:32.382Z,36.20
2022-12-26T02:22:04.875Z,33.90
2022-12-26T02:22:37.365Z,35.40
2022-12-26T02:23:09.859Z,39.60
2022-12-26T02:23:42.355Z,42.20
2022-12-26T02:24:14.785Z,35.50
2022-12-26T02:24:47.289Z,38.10
2022-12-26T02:25:19.734Z,39.70
2022-12-26T02:25:52.158Z,36.00
2022-12-26T02:26:24.668Z,39.00
2022-12-26T02:26:57.165Z,38.80
2022-12-26T02:27:29.653Z,34.30
2022-12-26T02:28:02.137Z,35.40
2022-12-26T02:28:34.672Z,41.50
2022-12-26T02:29:07.155Z,42.00
2022-12-26T02:29:39.647Z,38.50
2022-12-26T02:30:12.135Z,41.20
2022-12-26T02:30:44.633Z,38.20
2022-12-26T02:31:17.129Z,34.80
2022-12-26T02:31:49.622Z,39.00
2022-12-26T02:32:22.036Z,41.80
2022-12-26T02:32:54.467Z,38.70
2022-12-26T02:33:26.912Z,36.00
2022-12-26T02:33:59.317Z,41.20
2022-12-26T02:34:31.762Z,45.90
2022-12-26T02:35:04.201Z,48.10
2022-12-26T02:35:36.764Z,43.00
2022-12-26T02:36:09.262Z,38.10
2022-12-26T02:36:41.685Z,37.90
2022-12-26T02:37:14.182Z,40.60
2022-12-26T02:37:46.720Z,43.10
2022-12-26T02:38:19.153Z,43.00
2022-12-26T02:38:51.597Z,38.40
2022-12-26T02:39:44.238Z,39.70
2022-12-26T02:39:56.457Z,41.80
2022-12-26T02:40:28.915Z,38.80
2022-12-26T02:41:01.363Z,36.40
2022-12-26T02:41:33.770Z,38.30
2022-12-26T02:42:06.231Z,40.50
2022-12-26T02:42:38.686Z,38.50
2022-12-26T02:43:11.221Z,35.40
2022-12-26T02:43:43.703Z,40.50
2022-12-26T02:44:16.133Z,42.00
2022-12-26T02:44:48.606Z,38.90
2022-12-26T02:45:21.030Z,36.30
2022-12-26T02:45:53.507Z,36.00
2022-12-26T02:46:26.060Z,35.60
2022-12-26T02:46:58.493Z,34.00
2022-12-26T02:47:30.993Z,36.20
2022-12-26T02:48:03.494Z,39.10
2022-12-26T02:48:35.991Z,38.50
2022-12-26T02:49:08.571Z,40.50
2022-12-26T02:49:41.027Z,40.20
2022-12-26T02:50:13.559Z,42.80
2022-12-26T02:50:46.100Z,40.00
2022-12-26T02:51:18.649Z,40.80
2022-12-26T02:51:51.075Z,38.20
2022-12-26T02:52:23.534Z,36.90
2022-12-26T02:52:56.018Z,35.70
2022-12-26T02:53:28.536Z,32.70
2022-12-26T02:54:01.034Z,33.90
2022-12-26T02:54:33.558Z,42.90
2022-12-26T02:55:06.031Z,45.90
2022-12-26T02:55:38.470Z,42.20
2022-12-26T02:56:10.905Z,41.80
2022-12-26T02:56:43.419Z,38.20
2022-12-26T02:57:15.993Z,38.70
2022-12-26T02:57:48.428Z,42.40
2022-12-26T02:58:20.899Z,41.50
2022-12-26T02:58:53.472Z,50.00
2022-12-26T02:59:55.843Z,47.70
2022-12-26T02:59:58.434Z,37.30
2022-12-26T03:00:30.889Z,39.60
2022-12-26T03:01:03.485Z,39.00
2022-12-26T03:01:35.900Z,40.80
2022-12-26T03:02:08.437Z,48.80
2022-12-26T03:02:40.974Z,39.50
2022-12-26T03:03:13.322Z,34.60
2022-12-26T03:03:45.790Z,42.40
2022-12-26T03:04:18.256Z,43.50
2022-12-26T03:04:50.743Z,43.40
2022-12-26T03:05:23.253Z,44.00
2022-12-26T03:05:55.757Z,44.70
2022-12-26T03:06:28.296Z,43.80
2022-12-26T03:07:00.731Z,39.40
2022-12-26T03:07:33.178Z,40.70
2022-12-26T03:08:05.611Z,43.40
2022-12-26T03:08:38.049Z,50.20
2022-12-26T03:09:10.464Z,45.50
2022-12-26T03:09:42.925Z,39.50
2022-12-26T03:10:15.475Z,38.70
2022-12-26T03:10:47.921Z,39.30
2022-12-26T03:11:20.418Z,40.80
2022-12-26T03:11:52.917Z,44.30
2022-12-26T03:12:25.442Z,46.40
2022-12-26T03:12:57.911Z,45.90
2022-12-26T03:13:30.361Z,44.90
2022-12-26T03:14:02.895Z,46.90
2022-12-26T03:14:35.387Z,44.30
2022-12-26T03:15:07.903Z,42.10
2022-12-26T03:15:40.404Z,39.10
2022-12-26T03:16:12.955Z,41.90
2022-12-26T03:16:45.502Z,41.80
2022-12-26T03:17:17.961Z,39.50
2022-12-26T03:17:50.429Z,41.60
2022-12-26T03:18:56.975Z,39.20
2022-12-26T03:18:58.735Z,45.20
2022-12-26T03:19:27.869Z,37.20
2022-12-26T03:20:00.424Z,41.30
2022-12-26T03:20:32.804Z,42.60
2022-12-26T03:21:05.285Z,50.00
2022-12-26T03:21:37.789Z,43.40
2022-12-26T03:22:10.300Z,42.30
2022-12-26T03:22:42.738Z,42.90
2022-12-26T03:23:15.182Z,38.60
2022-12-26T03:23:47.680Z,38.70
2022-12-26T03:24:20.232Z,40.70
2022-12-26T03:24:52.700Z,41.40
2022-12-26T03:25:25.133Z,40.10
2022-12-26T03:25:57.604Z,41.40
2022-12-26T03:26:30.049Z,40.60
2022-12-26T03:27:02.558Z,40.00
2022-12-26T03:27:35.043Z,39.00
2022-12-26T03:28:07.555Z,39.80
2022-12-26T03:28:40.092Z,44.70
2022-12-26T03:29:18.608Z,47.60
2022-12-26T03:29:45.117Z,39.70
2022-12-26T03:30:17.667Z,38.40
2022-12-26T03:30:50.263Z,45.00
2022-12-26T03:31:22.714Z,43.10
2022-12-26T03:31:55.123Z,42.60
2022-12-26T03:32:27.646Z,39.00
2022-12-26T03:33:00.115Z,41.80
2022-12-26T03:33:32.555Z,42.90
2022-12-26T03:34:05.021Z,38.10
2022-12-26T03:34:37.472Z,38.30
2022-12-26T03:35:09.955Z,47.20
2022-12-26T03:35:42.464Z,48.50
2022-12-26T03:36:15.018Z,38.90
2022-12-26T03:36:47.520Z,40.00
2022-12-26T03:37:20.054Z,39.40
2022-12-26T03:37:52.496Z,40.00
2022-12-26T03:38:24.973Z,35.80
2022-12-26T03:38:57.474Z,34.60
2022-12-26T03:39:30.037Z,37.30
2022-12-26T03:40:02.427Z,36.50
2022-12-26T03:40:34.937Z,39.00
2022-12-26T03:41:07.426Z,42.50
2022-12-26T03:41:39.857Z,37.80
2022-12-26T03:42:12.334Z,37.30
2022-12-26T03:42:44.793Z,37.40
2022-12-26T03:43:17.233Z,37.70
2022-12-26T03:43:49.783Z,38.80
2022-12-26T03:44:22.230Z,39.20
2022-12-26T03:44:54.731Z,40.10
2022-12-26T03:45:27.207Z,42.70
2022-12-26T03:45:59.756Z,41.30
2022-12-26T03:46:32.244Z,40.20
2022-12-26T03:47:04.655Z,37.90
2022-12-26T03:47:37.089Z,33.70
2022-12-26T03:48:09.550Z,37.20
2022-12-26T03:48:42.105Z,37.30
2022-12-26T03:49:14.595Z,33.80
2022-12-26T03:49:47.126Z,42.00
2022-12-26T03:50:19.610Z,40.70
2022-12-26T03:50:52.057Z,34.20
2022-12-26T03:51:24.494Z,35.80
2022-12-26T03:51:57.007Z,36.00
2022-12-26T03:52:29.498Z,37.70
2022-12-26T03:53:02.097Z,37.20
2022-12-26T03:53:34.579Z,34.30
2022-12-26T03:54:07.056Z,37.40
2022-12-26T03:54:39.517Z,34.70
2022-12-26T03:55:12.011Z,35.00
2022-12-26T03:55:44.500Z,37.60
2022-12-26T03:56:17.047Z,38.10
2022-12-26T03:56:49.434Z,37.80
2022-12-26T03:57:21.873Z,37.10
2022-12-26T03:57:54.374Z,35.70
2022-12-26T03:58:26.887Z,38.40
2022-12-26T03:58:59.341Z,38.40
2022-12-26T03:59:31.830Z,37.60
2022-12-26T04:00:04.368Z,38.10
2022-12-26T04:00:36.788Z,36.20
2022-12-26T04:01:09.404Z,33.60
2022-12-26T04:01:41.868Z,35.50
2022-12-26T04:02:14.361Z,33.50
2022-12-26T04:02:46.642Z,35.00
2022-12-26T04:03:19.136Z,39.10
2022-12-26T04:03:51.574Z,37.00
2022-12-26T04:04:23.963Z,34.20
2022-12-26T04:04:56.425Z,34.10
2022-12-26T04:05:28.848Z,35.80
2022-12-26T04:06:01.372Z,35.10
2022-12-26T04:06:33.848Z,36.60
2022-12-26T04:07:06.335Z,36.20
2022-12-26T04:07:56.244Z,36.60
2022-12-26T04:08:16.445Z,33.20
2022-12-26T04:08:43.716Z,34.80
2022-12-26T04:09:16.163Z,37.00
2022-12-26T04:09:48.607Z,37.90
2022-12-26T04:10:21.058Z,38.80
2022-12-26T04:10:53.498Z,40.50
2022-12-26T04:11:25.950Z,36.40
2022-12-26T04:11:58.381Z,35.80
2022-12-26T04:12:30.838Z,36.20
2022-12-26T04:13:03.324Z,37.30
2022-12-26T04:13:35.724Z,37.10
2022-12-26T04:14:08.270Z,40.00
2022-12-26T04:14:40.732Z,38.60
2022-12-26T04:15:13.282Z,36.50
2022-12-26T04:15:45.826Z,38.10
2022-12-26T04:16:18.325Z,37.20
2022-12-26T04:16:50.774Z,33.50
2022-12-26T04:17:23.261Z,39.70
2022-12-26T04:17:55.793Z,41.00
2022-12-26T04:18:28.281Z,38.50
2022-12-26T04:19:00.803Z,37.10
2022-12-26T04:19:33.288Z,36.90
2022-12-26T04:20:05.823Z,42.50
2022-12-26T04:20:38.292Z,39.40
2022-12-26T04:21:10.784Z,36.30
2022-12-26T04:21:43.274Z,34.20
2022-12-26T04:22:15.772Z,35.60
2022-12-26T04:22:48.272Z,39.10
2022-12-26T04:23:20.773Z,39.00
2022-12-26T04:23:53.205Z,38.10
2022-12-26T04:24:25.635Z,39.80
2022-12-26T04:24:58.179Z,38.50
2022-12-26T04:25:50.786Z,37.80
2022-12-26T04:26:03.184Z,36.70
2022-12-26T04:26:35.777Z,41.60
2022-12-26T04:27:08.269Z,41.50
2022-12-26T04:27:40.801Z,38.30
2022-12-26T04:28:13.266Z,42.40
2022-12-26T04:28:45.712Z,38.60
2022-12-26T04:29:18.149Z,32.20
2022-12-26T04:29:50.592Z,33.10
2022-12-26T04:30:23.029Z,37.10
2022-12-26T04:30:55.499Z,35.40
2022-12-26T04:31:28.035Z,37.20
2022-12-26T04:32:00.466Z,40.80
2022-12-26T04:32:33.042Z,41.30
2022-12-26T04:33:05.529Z,41.00
2022-12-26T04:33:37.986Z,41.20
2022-12-26T04:34:10.481Z,44.50
2022-12-26T04:34:42.976Z,40.00
2022-12-26T04:35:15.466Z,34.40
2022-12-26T04:35:47.992Z,34.70
2022-12-26T04:36:20.526Z,36.00
2022-12-26T04:36:52.999Z,40.80
2022-12-26T04:37:25.443Z,40.90
2022-12-26T04:37:57.898Z,38.80
2022-12-26T04:38:30.369Z,41.80
2022-12-26T04:39:02.801Z,38.50
2022-12-26T04:39:35.312Z,37.20
2022-12-26T04:40:07.948Z,39.10
2022-12-26T04:40:40.369Z,39.70
2022-12-26T04:41:12.942Z,38.40
2022-12-26T04:41:45.457Z,40.20
2022-12-26T04:42:17.891Z,44.50
2022-12-26T04:42:50.313Z,41.90
2022-12-26T04:43:47.297Z,47.60
2022-12-26T04:43:55.249Z,45.60
2022-12-26T04:44:27.765Z,37.90
2022-12-26T04:45:00.288Z,34.00
2022-12-26T04:45:32.827Z,35.30
2022-12-26T04:46:05.339Z,38.70
2022-12-26T04:46:37.884Z,40.50
2022-12-26T04:47:10.235Z,43.40
2022-12-26T04:47:42.741Z,41.10
2022-12-26T04:48:15.261Z,40.20
2022-12-26T04:48:47.827Z,49.90
2022-12-26T04:49:20.409Z,48.70
2022-12-26T04:49:52.918Z,40.30
2022-12-26T04:50:25.351Z,40.40
2022-12-26T04:50:57.786Z,39.50
2022-12-26T04:51:30.322Z,39.50
2022-12-26T04:52:02.812Z,42.10
2022-12-26T04:52:35.262Z,40.10
2022-12-26T04:53:07.701Z,41.90
2022-12-26T04:53:40.185Z,44.60
2022-12-26T04:54:12.679Z,46.10
2022-12-26T04:54:45.114Z,39.90
2022-12-26T04:55:17.552Z,39.60
2022-12-26T04:55:49.989Z,39.70
2022-12-26T04:56:22.450Z,39.20
2022-12-26T04:56:54.894Z,38.10
2022-12-26T04:57:27.367Z,40.40
2022-12-26T04:57:59.872Z,43.80
2022-12-26T04:58:32.295Z,38.10
2022-12-26T04:59:04.757Z,34.60
2022-12-26T04:59:37.164Z,37.00
2022-12-26T05:00:09.600Z,38.90
2022-12-26T05:00:42.099Z,37.80
2022-12-26T05:01:14.786Z,35.00
2022-12-26T05:01:47.234Z,42.00
2022-12-26T05:02:19.719Z,39.50
2022-12-26T05:02:52.123Z,33.20
2022-12-26T05:03:24.590Z,33.50
2022-12-26T05:03:57.109Z,33.90
2022-12-26T05:04:29.524Z,39.30
2022-12-26T05:05:02.054Z,37.60
2022-12-26T05:05:34.567Z,37.10
2022-12-26T05:06:07.086Z,35.70
2022-12-26T05:06:39.511Z,34.40
2022-12-26T05:07:11.955Z,37.50
2022-12-26T05:07:44.437Z,40.00
2022-12-26T05:08:16.883Z,40.60
2022-12-26T05:08:49.343Z,39.10
2022-12-26T05:09:21.831Z,34.80
2022-12-26T05:09:54.357Z,33.50
2022-12-26T05:10:26.829Z,39.90
2022-12-26T05:10:59.325Z,37.90
2022-12-26T05:11:31.821Z,31.30
2022-12-26T05:12:04.336Z,33.70
2022-12-26T05:12:36.756Z,31.40
2022-12-26T05:13:09.294Z,31.70
2022-12-26T05:13:41.873Z,33.40
2022-12-26T05:14:14.353Z,37.00
2022-12-26T05:14:46.855Z,48.40
2022-12-26T05:15:19.410Z,43.30
2022-12-26T05:15:51.935Z,37.30
2022-12-26T05:16:24.468Z,36.80
2022-12-26T05:16:56.912Z,32.00
2022-12-26T05:17:29.403Z,32.80
2022-12-26T05:18:01.900Z,34.40
2022-12-26T05:18:34.421Z,33.20
2022-12-26T05:19:06.930Z,37.90
2022-12-26T05:19:39.367Z,35.40
2022-12-26T05:20:11.884Z,35.90
2022-12-26T05:20:44.362Z,36.40
2022-12-26T05:21:16.863Z,37.20
2022-12-26T05:21:49.340Z,33.40
2022-12-26T05:22:21.846Z,32.10
2022-12-26T05:22:54.380Z,31.00
2022-12-26T05:23:26.885Z,31.00
2022-12-26T05:23:59.395Z,35.70
2022-12-26T05:24:31.841Z,36.80
2022-12-26T05:25:04.284Z,33.80
2022-12-26T05:25:36.814Z,37.70
2022-12-26T05:26:09.350Z,35.10
2022-12-26T05:26:41.832Z,35.00
2022-12-26T05:27:14.306Z,37.80
2022-12-26T05:27:46.799Z,36.50
2022-12-26T05:28:26.294Z,35.10
2022-12-26T05:28:58.725Z,27.40
2022-12-26T05:29:31.222Z,29.60
2022-12-26T05:30:03.651Z,31.90
2022-12-26T05:30:36.116Z,35.00
2022-12-26T05:31:08.613Z,35.40
2022-12-26T05:31:41.149Z,32.80
2022-12-26T05:32:13.510Z,35.80
2022-12-26T05:32:45.969Z,34.70
2022-12-26T05:33:18.424Z,32.70
2022-12-26T05:33:50.868Z,34.00
2022-12-26T05:34:23.325Z,35.00
2022-12-26T05:34:55.758Z,34.90
2022-12-26T05:35:28.323Z,31.50
2022-12-26T05:36:00.844Z,30.10
2022-12-26T05:36:33.327Z,30.50
2022-12-26T05:37:05.797Z,34.80
2022-12-26T05:37:38.342Z,31.10
2022-12-26T05:38:10.884Z,29.40
2022-12-26T05:38:43.340Z,34.40
2022-12-26T05:39:15.798Z,34.50
2022-12-26T05:39:48.308Z,28.00
2022-12-26T05:40:20.844Z,28.10
2022-12-26T05:40:53.364Z,31.40
2022-12-26T05:41:25.885Z,32.60
2022-12-26T05:41:58.394Z,31.40
2022-12-26T05:42:30.908Z,34.20
2022-12-26T05:43:03.425Z,36.90
2022-12-26T05:43:36.005Z,33.10
2022-12-26T05:44:08.591Z,29.90
2022-12-26T05:44:41.125Z,28.40
2022-12-26T05:45:13.692Z,25.90
2022-12-26T05:45:46.247Z,29.70
2022-12-26T05:46:18.793Z,27.90
2022-12-26T05:46:51.255Z,26.40
2022-12-26T05:47:23.637Z,28.60
2022-12-26T05:47:56.191Z,30.90
2022-12-26T05:48:29.317Z,30.20
2022-12-26T05:49:01.852Z,30.20
2022-12-26T05:49:34.512Z,30.50
2022-12-26T05:50:07.036Z,34.00
2022-12-26T05:50:39.551Z,32.40
2022-12-26T05:51:12.086Z,30.20
2022-12-26T05:51:44.597Z,33.00
2022-12-26T05:52:17.157Z,28.40
2022-12-26T05:52:49.690Z,26.80
2022-12-26T05:53:22.233Z,26.30
2022-12-26T05:53:54.819Z,27.30
2022-12-26T05:54:27.387Z,29.00
2022-12-26T05:54:59.944Z,28.00
2022-12-26T05:55:32.457Z,30.30
2022-12-26T05:56:04.965Z,31.10
2022-12-26T05:56:37.618Z,26.80
2022-12-26T05:57:10.220Z,29.30
2022-12-26T05:57:42.691Z,31.90
2022-12-26T05:58:15.228Z,29.50
2022-12-26T05:58:47.989Z,28.50
2022-12-26T05:59:20.453Z,30.40
2022-12-26T05:59:52.880Z,30.90
2022-12-26T06:00:25.361Z,29.20
2022-12-26T06:00:57.835Z,26.30
2022-12-26T06:01:30.709Z,48.10
2022-12-26T06:02:02.904Z,51.50
2022-12-26T06:02:35.546Z,26.50
2022-12-26T06:03:08.067Z,26.10
2022-12-26T06:03:40.671Z,28.80
2022-12-26T06:04:13.327Z,27.00
2022-12-26T06:04:45.826Z,27.20
2022-12-26T06:05:18.344Z,27.60
2022-12-26T06:05:50.844Z,26.60
2022-12-26T06:06:23.430Z,30.80
2022-12-26T06:06:55.920Z,27.20
2022-12-26T06:07:28.369Z,29.70
2022-12-26T06:08:00.885Z,31.10
2022-12-26T06:08:33.473Z,31.00
2022-12-26T06:09:05.945Z,30.50
2022-12-26T06:09:38.416Z,27.20
2022-12-26T06:10:10.866Z,30.70
2022-12-26T06:10:43.351Z,30.30
2022-12-26T06:11:15.826Z,26.00
2022-12-26T06:11:49.119Z,26.60
2022-12-26T06:12:20.900Z,29.00
2022-12-26T06:12:53.400Z,32.70
2022-12-26T06:13:25.976Z,32.60
2022-12-26T06:13:58.449Z,26.90
2022-12-26T06:14:30.917Z,23.80
2022-12-26T06:15:03.435Z,27.10
2022-12-26T06:15:35.884Z,29.70
2022-12-26T06:16:08.427Z,30.30
2022-12-26T06:16:40.881Z,28.40
2022-12-26T06:17:13.268Z,24.30
2022-12-26T06:17:45.744Z,22.40
2022-12-26T06:18:18.180Z,23.70
2022-12-26T06:18:50.636Z,23.90
2022-12-26T06:19:23.134Z,26.90
2022-12-26T06:19:55.684Z,26.30
2022-12-26T06:20:28.217Z,25.80
2022-12-26T06:21:00.666Z,25.10
2022-12-26T06:21:33.137Z,23.70
2022-12-26T06:22:05.594Z,24.50
2022-12-26T06:22:38.309Z,28.70
2022-12-26T06:23:10.644Z,30.30
2022-12-26T06:23:43.168Z,24.40
2022-12-26T06:24:15.621Z,25.70
2022-12-26T06:24:48.075Z,27.80
2022-12-26T06:25:20.537Z,26.40
2022-12-26T06:25:53.025Z,26.10
2022-12-26T06:26:25.530Z,25.50
2022-12-26T06:26:58.029Z,29.20
2022-12-26T06:27:30.543Z,31.90
2022-12-26T06:28:02.991Z,28.30
2022-12-26T06:28:35.516Z,22.20
2022-12-26T06:29:08.053Z,22.70
2022-12-26T06:29:40.557Z,23.50
2022-12-26T06:30:13.082Z,22.30
2022-12-26T06:30:45.536Z,23.40
2022-12-26T06:31:18.165Z,21.80
2022-12-26T06:31:50.523Z,21.40
2022-12-26T06:32:22.925Z,24.80
2022-12-26T06:32:55.447Z,25.20
2022-12-26T06:33:27.961Z,23.30
2022-12-26T06:34:00.400Z,21.60
2022-12-26T06:34:32.850Z,21.60
2022-12-26T06:35:05.302Z,20.60
2022-12-26T06:35:37.803Z,22.10
2022-12-26T06:36:10.239Z,21.00
2022-12-26T06:36:42.755Z,16.90
2022-12-26T06:37:15.248Z,20.70
2022-12-26T06:37:47.727Z,23.60
2022-12-26T06:38:20.202Z,22.10
2022-12-26T06:38:52.669Z,23.90
2022-12-26T06:39:25.141Z,20.60
2022-12-26T06:39:57.675Z,18.60
2022-12-26T06:40:30.161Z,20.80
2022-12-26T06:41:02.622Z,20.50
2022-12-26T06:41:35.105Z,19.80
2022-12-26T06:42:07.570Z,21.70
2022-12-26T06:42:40.063Z,20.40
2022-12-26T06:43:12.653Z,22.10
2022-12-26T06:43:45.187Z,22.90
2022-12-26T06:44:18.643Z,21.60
2022-12-26T06:44:50.238Z,21.30
2022-12-26T06:45:22.762Z,23.00
2022-12-26T06:45:55.268Z,21.70
2022-12-26T06:46:27.827Z,20.00
2022-12-26T06:47:00.457Z,18.70
2022-12-26T06:47:32.836Z,19.60
2022-12-26T06:48:05.340Z,22.70
2022-12-26T06:48:37.851Z,22.00
2022-12-26T06:49:10.346Z,20.30
2022-12-26T06:49:42.892Z,22.20
2022-12-26T06:50:15.392Z,23.90
2022-12-26T06:50:47.855Z,20.10
2022-12-26T06:51:20.273Z,19.80
2022-12-26T06:51:52.732Z,18.30
2022-12-26T06:52:25.175Z,19.20
2022-12-26T06:52:57.667Z,19.80
2022-12-26T06:53:30.227Z,19.60
2022-12-26T06:54:02.657Z,20.20
2022-12-26T06:54:35.169Z,20.50
2022-12-26T06:55:07.578Z,18.70
2022-12-26T06:55:40.093Z,17.10
2022-12-26T06:56:12.602Z,19.10
2022-12-26T06:56:45.074Z,18.80
2022-12-26T06:57:17.516Z,19.60
2022-12-26T06:57:50.063Z,20.20
2022-12-26T06:58:22.579Z,17.60